createdAt,value
2017-06-03T00:00:01.765Z,18.16
2017-06-03T00:00:06.095Z,18.11
2017-06-03T00:00:10.406Z,18.1
2017-06-03T00:00:14.709Z,18.14
2017-06-03T00:00:19.140Z,18.11
2017-06-03T00:00:23.571Z,18.14
2017-06-03T00:00:27.881Z,18.14
2017-06-03T00:00:32.315Z,18.1
2017-06-03T00:00:36.778Z,18.11
2017-06-03T00:00:41.210Z,18.11
2017-06-03T00:00:45.518Z,18.11
2017-06-03T00:00:49.832Z,18.16
2017-06-03T00:00:54.273Z,18.1
2017-06-03T00:00:58.694Z,18.13
2017-06-03T00:01:03.424Z,18.11
2017-06-03T00:01:07.745Z,18.09
2017-06-03T00:01:11.938Z,18.11
2017-06-03T00:01:16.368Z,18.07
2017-06-03T00:01:20.794Z,18.09
2017-06-03T00:01:25.114Z,18.14
2017-06-03T00:01:29.537Z,18.19
2017-06-03T00:01:33.959Z,18.07
2017-06-03T00:01:38.379Z,18.13
2017-06-03T00:01:42.807Z,18.13
2017-06-03T00:01:47.145Z,18.13
2017-06-03T00:01:51.452Z,18.17
2017-06-03T00:01:55.765Z,18.13
2017-06-03T00:02:00.198Z,18.07
2017-06-03T00:02:04.559Z,18.09
2017-06-03T00:02:08.862Z,18.09
2017-06-03T00:02:13.183Z,18.07
2017-06-03T00:02:17.492Z,18.17
2017-06-03T00:02:21.804Z,18.14
2017-06-03T00:02:26.110Z,18.1
2017-06-03T00:02:30.543Z,18.16
2017-06-03T00:02:34.967Z,18.19
2017-06-03T00:02:39.390Z,18.13
2017-06-03T00:02:43.810Z,18.16
2017-06-03T00:02:48.243Z,18.09
2017-06-03T00:02:52.668Z,18.11
2017-06-03T00:02:56.980Z,18.19
2017-06-03T00:03:01.401Z,18.17
2017-06-03T00:03:05.607Z,18.14
2017-06-03T00:03:09.908Z,18.16
2017-06-03T00:03:14.209Z,18.19
2017-06-03T00:03:18.527Z,18.1
2017-06-03T00:03:22.835Z,18.2
2017-06-03T00:03:27.155Z,18.13
2017-06-03T00:03:31.580Z,18.1
2017-06-03T00:03:35.998Z,18.2
2017-06-03T00:03:40.419Z,18.11
2017-06-03T00:03:44.865Z,18.17
2017-06-03T00:03:49.049Z,18.14
2017-06-03T00:03:53.476Z,18.13
2017-06-03T00:03:57.667Z,18.11
2017-06-03T00:04:02.398Z,18.11
2017-06-03T00:04:06.826Z,18.14
2017-06-03T00:04:11.136Z,18.17
2017-06-03T00:04:15.558Z,18.14
2017-06-03T00:04:19.993Z,18.14
2017-06-03T00:04:24.420Z,18.13
2017-06-03T00:04:28.846Z,18.21
2017-06-03T00:04:33.037Z,18.14
2017-06-03T00:04:37.464Z,18.11
2017-06-03T00:04:41.890Z,18.19
2017-06-03T00:04:46.312Z,18.1
2017-06-03T00:04:50.628Z,18.14
2017-06-03T00:04:54.841Z,18.11
2017-06-03T00:04:59.147Z,18.14
2017-06-03T00:05:03.570Z,18.1
2017-06-03T00:05:07.882Z,18.13
2017-06-03T00:05:12.195Z,18.1
2017-06-03T00:05:16.506Z,18.16
2017-06-03T00:05:21.229Z,18.16
2017-06-03T00:05:25.987Z,18.17
2017-06-03T00:05:31.641Z,18.09
2017-06-03T00:05:36.169Z,18.14
2017-06-03T00:05:40.681Z,18.07
2017-06-03T00:05:46.017Z,18.11
2017-06-03T00:05:51.002Z,18.09
2017-06-03T00:05:56.234Z,18.14
2017-06-03T00:06:01.958Z,18.19
2017-06-03T00:06:07.110Z,18.11
2017-06-03T00:06:11.669Z,18.14
2017-06-03T00:06:16.624Z,18.13
2017-06-03T00:06:21.106Z,18.09
2017-06-03T00:06:25.413Z,18.11
2017-06-03T00:06:30.574Z,18.16
2017-06-03T00:06:36.218Z,18.1
2017-06-03T00:06:41.140Z,18.16
2017-06-03T00:06:46.303Z,18.14
2017-06-03T00:06:51.504Z,18.19
2017-06-03T00:06:56.679Z,18.17
2017-06-03T00:07:01.411Z,18.17
2017-06-03T00:07:05.839Z,18.09
2017-06-03T00:07:10.170Z,18.21
2017-06-03T00:07:14.480Z,18.16
2017-06-03T00:07:18.785Z,18.16
2017-06-03T00:07:23.216Z,18.13
2017-06-03T00:07:27.407Z,18.16
2017-06-03T00:07:31.844Z,18.09
2017-06-03T00:07:36.264Z,18.13
2017-06-03T00:07:40.725Z,18.14
2017-06-03T00:07:45.030Z,18.13
2017-06-03T00:07:49.332Z,18.25
2017-06-03T00:07:53.769Z,18.19
2017-06-03T00:07:58.211Z,18.17
2017-06-03T00:08:02.638Z,18.21
2017-06-03T00:08:07.087Z,18.13
2017-06-03T00:08:11.397Z,18.28
2017-06-03T00:08:15.587Z,18.19
2017-06-03T00:08:19.776Z,18.16
2017-06-03T00:08:24.210Z,18.19
2017-06-03T00:08:28.633Z,18.1
2017-06-03T00:08:32.938Z,18.1
2017-06-03T00:08:37.240Z,18.16
2017-06-03T00:08:41.555Z,18.11
2017-06-03T00:08:45.747Z,18.19
2017-06-03T00:08:50.176Z,18.11
2017-06-03T00:08:54.482Z,18.07
2017-06-03T00:08:58.785Z,18.13
2017-06-03T00:09:03.369Z,18.11
2017-06-03T00:09:07.795Z,18.1
2017-06-03T00:09:12.116Z,18.14
2017-06-03T00:09:16.416Z,18.19
2017-06-03T00:09:20.734Z,18.16
2017-06-03T00:09:25.161Z,18.16
2017-06-03T00:09:29.471Z,18.19
2017-06-03T00:09:33.784Z,18.19
2017-06-03T00:09:38.209Z,18.19
2017-06-03T00:09:42.514Z,18.28
2017-06-03T00:09:46.937Z,18.17
2017-06-03T00:09:51.367Z,18.13
2017-06-03T00:09:55.790Z,18.16
2017-06-03T00:10:00.214Z,18.13
2017-06-03T00:10:04.529Z,18.13
2017-06-03T00:10:08.875Z,18.16
2017-06-03T00:10:13.294Z,18.21
2017-06-03T00:10:19.271Z,18.13
2017-06-03T00:10:25.675Z,18.26
2017-06-03T00:10:33.169Z,18.13
2017-06-03T00:10:38.501Z,18.25
2017-06-03T00:10:44.546Z,18.16
2017-06-03T00:10:49.694Z,18.2
2017-06-03T00:10:55.770Z,18.2
2017-06-03T00:11:01.180Z,18.17
2017-06-03T00:11:06.348Z,18.2
2017-06-03T00:11:11.773Z,18.19
2017-06-03T00:11:17.686Z,18.28
2017-06-03T00:11:23.208Z,18.2
2017-06-03T00:11:30.079Z,18.16
2017-06-03T00:11:34.691Z,18.2
2017-06-03T00:11:40.602Z,18.17
2017-06-03T00:11:45.343Z,18.2
2017-06-03T00:11:50.536Z,18.16
2017-06-03T00:11:55.242Z,18.2
2017-06-03T00:12:02.141Z,18.17
2017-06-03T00:12:07.480Z,18.17
2017-06-03T00:12:13.351Z,18.19
2017-06-03T00:12:17.868Z,18.13
2017-06-03T00:12:24.352Z,18.2
2017-06-03T00:12:30.874Z,18.17
2017-06-03T00:12:35.063Z,18.19
2017-06-03T00:12:40.168Z,18.17
2017-06-03T00:12:45.950Z,18.2
2017-06-03T00:12:51.778Z,18.25
2017-06-03T00:12:57.771Z,18.16
2017-06-03T00:13:02.468Z,18.21
2017-06-03T00:13:09.248Z,18.21
2017-06-03T00:13:15.328Z,18.14
2017-06-03T00:13:19.962Z,18.25
2017-06-03T00:13:25.515Z,18.25
2017-06-03T00:13:31.306Z,18.2
2017-06-03T00:13:37.520Z,18.21
2017-06-03T00:13:42.736Z,18.19
2017-06-03T00:13:49.973Z,18.13
2017-06-03T00:13:54.875Z,18.1
2017-06-03T00:14:00.280Z,18.25
2017-06-03T00:14:05.468Z,18.16
2017-06-03T00:14:10.918Z,18.26
2017-06-03T00:14:15.494Z,18.16
2017-06-03T00:14:19.584Z,18.16
2017-06-03T00:14:24.021Z,18.14
2017-06-03T00:14:28.449Z,18.16
2017-06-03T00:14:32.875Z,18.21
2017-06-03T00:14:37.567Z,18.19
2017-06-03T00:14:42.777Z,18.11
2017-06-03T00:14:47.321Z,18.17
2017-06-03T00:14:52.169Z,18.17
2017-06-03T00:14:57.718Z,18.2
2017-06-03T00:15:02.876Z,18.16
2017-06-03T00:15:07.318Z,18.14
2017-06-03T00:15:13.204Z,18.17
2017-06-03T00:15:18.553Z,18.19
2017-06-03T00:15:24.928Z,18.14
2017-06-03T00:15:29.495Z,18.17
2017-06-03T00:15:35.090Z,18.21
2017-06-03T00:15:41.332Z,18.17
2017-06-03T00:15:46.510Z,18.13
2017-06-03T00:15:52.043Z,18.16
2017-06-03T00:15:58.286Z,18.14
2017-06-03T00:16:03.514Z,18.19
2017-06-03T00:16:09.495Z,18.14
2017-06-03T00:16:14.216Z,18.11
2017-06-03T00:16:19.391Z,18.14
2017-06-03T00:16:24.704Z,18.13
2017-06-03T00:16:30.775Z,18.13
2017-06-03T00:16:35.211Z,18.17
2017-06-03T00:16:39.636Z,18.13
2017-06-03T00:16:45.283Z,18.09
2017-06-03T00:16:51.478Z,18.17
2017-06-03T00:16:56.318Z,18.19
2017-06-03T00:17:05.220Z,18.14
2017-06-03T00:17:12.859Z,18.11
2017-06-03T00:17:22.114Z,18.07
2017-06-03T00:17:30.552Z,18.13
2017-06-03T00:17:36.237Z,18.11
2017-06-03T00:17:43.616Z,18.09
2017-06-03T00:17:50.420Z,18.11
2017-06-03T00:17:57.260Z,18.1
2017-06-03T00:18:02.337Z,18.05
2017-06-03T00:18:09.163Z,18.11
2017-06-03T00:18:15.325Z,18.11
2017-06-03T00:18:21.106Z,18.1
2017-06-03T00:18:26.881Z,18.13
2017-06-03T00:18:32.878Z,18.1
2017-06-03T00:18:38.414Z,18.11
2017-06-03T00:18:42.783Z,18.11
2017-06-03T00:18:47.111Z,18.09
2017-06-03T00:18:51.572Z,18.1
2017-06-03T00:18:56.557Z,18.07
2017-06-03T00:19:01.586Z,18.11
2017-06-03T00:19:07.331Z,18.11
2017-06-03T00:19:12.344Z,18.09
2017-06-03T00:19:18.114Z,18.16
2017-06-03T00:19:24.393Z,18.09
2017-06-03T00:19:28.953Z,18.1
2017-06-03T00:19:35.173Z,17.99
2017-06-03T00:19:40.953Z,18.05
2017-06-03T00:19:46.184Z,18.09
2017-06-03T00:19:51.621Z,18.01
2017-06-03T00:19:56.340Z,18.01
2017-06-03T00:20:01.311Z,18.01
2017-06-03T00:20:07.516Z,18.07
2017-06-03T00:20:12.367Z,18.09
2017-06-03T00:20:17.912Z,18.01
2017-06-03T00:20:22.473Z,18.05
2017-06-03T00:20:27.904Z,18.04
2017-06-03T00:20:34.592Z,18.09
2017-06-03T00:20:39.529Z,18.05
2017-06-03T00:20:46.096Z,17.99
2017-06-03T00:20:51.007Z,18.07
2017-06-03T00:20:55.433Z,18.02
2017-06-03T00:20:59.861Z,17.99
2017-06-03T00:21:04.294Z,18.04
2017-06-03T00:21:09.792Z,18.01
2017-06-03T00:21:15.882Z,17.99
2017-06-03T00:21:20.922Z,18.09
2017-06-03T00:21:25.780Z,17.98
2017-06-03T00:21:30.893Z,18.05
2017-06-03T00:21:36.466Z,18.14
2017-06-03T00:21:41.894Z,17.98
2017-06-03T00:21:47.265Z,17.99
2017-06-03T00:21:52.076Z,17.95
2017-06-03T00:21:57.979Z,18.02
2017-06-03T00:22:03.081Z,17.99
2017-06-03T00:22:09.267Z,17.98
2017-06-03T00:22:16.321Z,18.05
2017-06-03T00:22:21.575Z,17.98
2017-06-03T00:22:26.904Z,18.09
2017-06-03T00:22:33.271Z,17.95
2017-06-03T00:22:38.624Z,17.99
2017-06-03T00:22:44.695Z,17.99
2017-06-03T00:22:50.835Z,17.95
2017-06-03T00:22:56.510Z,18.02
2017-06-03T00:23:02.554Z,17.95
2017-06-03T00:23:08.128Z,17.95
2017-06-03T00:23:13.143Z,18.05
2017-06-03T00:23:19.131Z,18.02
2017-06-03T00:23:24.583Z,18.01
2017-06-03T00:23:29.621Z,17.95
2017-06-03T00:23:35.387Z,17.95
2017-06-03T00:23:42.941Z,17.95
2017-06-03T00:23:47.936Z,17.95
2017-06-03T00:23:53.563Z,18.05
2017-06-03T00:23:58.269Z,17.95
2017-06-03T00:24:03.424Z,17.99
2017-06-03T00:24:08.771Z,18.04
2017-06-03T00:24:15.050Z,18.04
2017-06-03T00:24:23.227Z,18.02
2017-06-03T00:24:28.406Z,17.99
2017-06-03T00:24:33.603Z,17.95
2017-06-03T00:24:39.182Z,18.02
2017-06-03T00:24:47.645Z,18.05
2017-06-03T00:24:52.486Z,17.98
2017-06-03T00:24:57.393Z,17.99
2017-06-03T00:25:03.387Z,17.94
2017-06-03T00:25:07.702Z,18.01
2017-06-03T00:25:13.142Z,17.98
2017-06-03T00:25:18.670Z,17.92
2017-06-03T00:25:24.471Z,17.98
2017-06-03T00:25:30.168Z,18.02
2017-06-03T00:25:35.578Z,17.94
2017-06-03T00:25:40.061Z,17.91
2017-06-03T00:25:44.497Z,17.92
2017-06-03T00:25:48.937Z,17.99
2017-06-03T00:25:53.273Z,17.91
2017-06-03T00:25:57.468Z,17.98
2017-06-03T00:26:01.930Z,17.96
2017-06-03T00:26:06.364Z,17.96
2017-06-03T00:26:10.667Z,17.99
2017-06-03T00:26:14.976Z,18.04
2017-06-03T00:26:19.432Z,17.99
2017-06-03T00:26:23.859Z,17.91
2017-06-03T00:26:28.287Z,17.99
2017-06-03T00:26:32.711Z,17.99
2017-06-03T00:26:37.039Z,18.01
2017-06-03T00:26:41.477Z,17.92
2017-06-03T00:26:45.666Z,17.99
2017-06-03T00:26:50.101Z,18.01
2017-06-03T00:26:54.528Z,17.99
2017-06-03T00:26:58.961Z,17.98
2017-06-03T00:27:03.417Z,18.02
2017-06-03T00:27:07.884Z,17.89
2017-06-03T00:27:12.193Z,17.92
2017-06-03T00:27:16.500Z,18.05
2017-06-03T00:27:20.806Z,17.95
2017-06-03T00:27:25.234Z,17.91
2017-06-03T00:27:29.544Z,18.01
2017-06-03T00:27:33.970Z,18.02
2017-06-03T00:27:38.395Z,18.01
2017-06-03T00:27:42.816Z,17.95
2017-06-03T00:27:46.932Z,18.02
2017-06-03T00:27:51.355Z,17.94
2017-06-03T00:27:55.775Z,18.02
2017-06-03T00:28:00.194Z,17.92
2017-06-03T00:28:04.621Z,17.95
2017-06-03T00:28:08.983Z,17.99
2017-06-03T00:28:13.405Z,18.05
2017-06-03T00:28:17.713Z,18.01
2017-06-03T00:28:22.138Z,17.96
2017-06-03T00:28:26.557Z,17.96
2017-06-03T00:28:30.978Z,18.02
2017-06-03T00:28:35.173Z,17.92
2017-06-03T00:28:39.602Z,17.98
2017-06-03T00:28:44.027Z,17.96
2017-06-03T00:28:48.483Z,17.92
2017-06-03T00:28:52.786Z,17.94
2017-06-03T00:28:57.208Z,18.02
2017-06-03T00:29:01.635Z,17.96
2017-06-03T00:29:06.350Z,18.01
2017-06-03T00:29:10.774Z,17.99
2017-06-03T00:29:15.085Z,18.01
2017-06-03T00:29:19.549Z,18.02
2017-06-03T00:29:23.972Z,17.99
2017-06-03T00:29:28.281Z,18.01
2017-06-03T00:29:32.708Z,17.99
2017-06-03T00:29:37.136Z,18.01
2017-06-03T00:29:41.327Z,17.95
2017-06-03T00:29:45.634Z,17.96
2017-06-03T00:29:49.950Z,17.92
2017-06-03T00:29:54.378Z,17.98
2017-06-03T00:29:58.801Z,17.98
2017-06-03T00:30:03.431Z,17.99
2017-06-03T00:30:07.744Z,17.99
2017-06-03T00:30:11.938Z,17.96
2017-06-03T00:30:16.362Z,18.05
2017-06-03T00:30:20.667Z,17.95
2017-06-03T00:30:24.973Z,18.01
2017-06-03T00:30:29.311Z,18.01
2017-06-03T00:30:33.618Z,18.02
2017-06-03T00:30:38.041Z,17.98
2017-06-03T00:30:42.358Z,17.99
2017-06-03T00:30:46.778Z,17.99
2017-06-03T00:30:51.206Z,17.99
2017-06-03T00:30:55.632Z,18.01
2017-06-03T00:30:59.955Z,17.94
2017-06-03T00:31:04.388Z,17.96
2017-06-03T00:31:08.822Z,18.02
2017-06-03T00:31:13.261Z,17.96
2017-06-03T00:31:17.691Z,18.05
2017-06-03T00:31:21.763Z,18.04
2017-06-03T00:31:26.098Z,18.02
2017-06-03T00:31:30.534Z,17.98
2017-06-03T00:31:34.959Z,17.92
2017-06-03T00:31:39.280Z,17.99
2017-06-03T00:31:43.740Z,18.02
2017-06-03T00:31:48.166Z,17.98
2017-06-03T00:31:52.590Z,17.95
2017-06-03T00:31:57.010Z,18.02
2017-06-03T00:32:01.344Z,17.99
2017-06-03T00:32:05.900Z,17.98
2017-06-03T00:32:10.220Z,17.94
2017-06-03T00:32:14.413Z,17.99
2017-06-03T00:32:18.612Z,17.95
2017-06-03T00:32:22.917Z,17.91
2017-06-03T00:32:27.233Z,17.92
2017-06-03T00:32:31.425Z,17.98
2017-06-03T00:32:35.846Z,17.91
2017-06-03T00:32:40.160Z,17.99
2017-06-03T00:32:44.609Z,17.92
2017-06-03T00:32:49.030Z,17.95
2017-06-03T00:32:53.460Z,17.95
2017-06-03T00:32:57.764Z,17.91
2017-06-03T00:33:02.387Z,17.98
2017-06-03T00:33:06.812Z,18.02
2017-06-03T00:33:11.018Z,18.02
2017-06-03T00:33:15.201Z,17.96
2017-06-03T00:33:19.626Z,17.96
2017-06-03T00:33:24.048Z,17.98
2017-06-03T00:33:28.243Z,17.96
2017-06-03T00:33:32.435Z,17.92
2017-06-03T00:33:36.743Z,17.95
2017-06-03T00:33:41.047Z,17.92
2017-06-03T00:33:45.563Z,17.91
2017-06-03T00:33:49.991Z,17.92
2017-06-03T00:33:54.409Z,17.95
2017-06-03T00:33:58.835Z,17.98
2017-06-03T00:34:03.413Z,17.94
2017-06-03T00:34:07.721Z,17.94
2017-06-03T00:34:12.161Z,17.92
2017-06-03T00:34:16.464Z,17.94
2017-06-03T00:34:20.782Z,17.96
2017-06-03T00:34:25.085Z,17.94
2017-06-03T00:34:29.505Z,17.91
2017-06-03T00:34:33.926Z,17.95
2017-06-03T00:34:38.241Z,17.92
2017-06-03T00:34:42.569Z,17.98
2017-06-03T00:34:47.002Z,17.94
2017-06-03T00:34:51.310Z,17.87
2017-06-03T00:34:55.745Z,17.95
2017-06-03T00:35:00.175Z,17.89
2017-06-03T00:35:04.688Z,17.95
2017-06-03T00:35:09.139Z,17.96
2017-06-03T00:35:13.572Z,17.95
2017-06-03T00:35:17.881Z,17.92
2017-06-03T00:35:22.304Z,17.96
2017-06-03T00:35:26.621Z,17.92
2017-06-03T00:35:31.047Z,17.95
2017-06-03T00:35:35.475Z,17.91
2017-06-03T00:35:39.911Z,17.95
2017-06-03T00:35:44.335Z,17.92
2017-06-03T00:35:48.764Z,17.95
2017-06-03T00:35:53.079Z,17.95
2017-06-03T00:35:57.512Z,17.91
2017-06-03T00:36:01.824Z,17.91
2017-06-03T00:36:06.254Z,17.95
2017-06-03T00:36:10.688Z,17.92
2017-06-03T00:36:15.114Z,17.91
2017-06-03T00:36:19.423Z,17.95
2017-06-03T00:36:23.844Z,17.92
2017-06-03T00:36:28.272Z,17.98
2017-06-03T00:36:32.692Z,17.91
2017-06-03T00:36:37.116Z,17.94
2017-06-03T00:36:41.308Z,17.92
2017-06-03T00:36:45.629Z,17.86
2017-06-03T00:36:49.937Z,17.89
2017-06-03T00:36:54.367Z,17.91
2017-06-03T00:36:58.796Z,17.96
2017-06-03T00:37:03.325Z,17.87
2017-06-03T00:37:07.634Z,17.92
2017-06-03T00:37:11.938Z,17.94
2017-06-03T00:37:16.365Z,17.95
2017-06-03T00:37:20.677Z,17.89
2017-06-03T00:37:25.100Z,17.91
2017-06-03T00:37:29.411Z,17.94
2017-06-03T00:37:33.841Z,17.91
2017-06-03T00:37:38.267Z,17.89
2017-06-03T00:37:42.572Z,17.91
2017-06-03T00:37:46.995Z,17.91
2017-06-03T00:37:51.452Z,17.87
2017-06-03T00:37:55.873Z,17.94
2017-06-03T00:38:00.295Z,17.91
2017-06-03T00:38:04.599Z,17.96
2017-06-03T00:38:09.030Z,17.89
2017-06-03T00:38:13.454Z,17.92
2017-06-03T00:38:17.762Z,17.94
2017-06-03T00:38:22.064Z,17.89
2017-06-03T00:38:26.259Z,17.91
2017-06-03T00:38:30.685Z,17.89
2017-06-03T00:38:35.101Z,17.86
2017-06-03T00:38:39.411Z,17.91
2017-06-03T00:38:43.601Z,17.87
2017-06-03T00:38:48.032Z,17.94
2017-06-03T00:38:52.498Z,17.91
2017-06-03T00:38:58.083Z,17.91
2017-06-03T00:39:04.276Z,17.91
2017-06-03T00:39:09.529Z,17.87
2017-06-03T00:39:14.487Z,17.87
2017-06-03T00:39:20.074Z,17.89
2017-06-03T00:39:25.010Z,17.84
2017-06-03T00:39:30.008Z,17.89
2017-06-03T00:39:35.375Z,17.92
2017-06-03T00:39:39.963Z,17.94
2017-06-03T00:39:45.524Z,17.91
2017-06-03T00:39:50.670Z,17.87
2017-06-03T00:39:55.562Z,17.84
2017-06-03T00:40:00.070Z,17.91
2017-06-03T00:40:05.498Z,17.91
2017-06-03T00:40:11.531Z,17.86
2017-06-03T00:40:17.086Z,17.91
2017-06-03T00:40:21.361Z,17.86
2017-06-03T00:40:26.321Z,17.86
2017-06-03T00:40:30.940Z,17.86
2017-06-03T00:40:36.054Z,17.89
2017-06-03T00:40:41.191Z,17.89
2017-06-03T00:40:46.056Z,17.89
2017-06-03T00:40:50.637Z,17.84
2017-06-03T00:40:56.499Z,17.81
2017-06-03T00:41:01.915Z,17.87
2017-06-03T00:41:06.656Z,17.84
2017-06-03T00:41:11.090Z,17.92
2017-06-03T00:41:16.507Z,17.87
2017-06-03T00:41:20.911Z,17.92
2017-06-03T00:41:26.040Z,17.86
2017-06-03T00:41:30.740Z,17.92
2017-06-03T00:41:35.683Z,17.83
2017-06-03T00:41:40.344Z,17.8
2017-06-03T00:41:46.126Z,17.84
2017-06-03T00:41:51.791Z,17.91
2017-06-03T00:41:56.478Z,17.86
2017-06-03T00:42:01.663Z,17.84
2017-06-03T00:42:06.305Z,17.86
2017-06-03T00:42:10.619Z,17.87
2017-06-03T00:42:15.046Z,17.94
2017-06-03T00:42:19.360Z,17.84
2017-06-03T00:42:23.680Z,17.86
2017-06-03T00:42:28.133Z,17.81
2017-06-03T00:42:33.568Z,17.92
2017-06-03T00:42:39.079Z,17.87
2017-06-03T00:42:44.041Z,17.94
2017-06-03T00:42:49.256Z,17.86
2017-06-03T00:42:54.001Z,17.83
2017-06-03T00:42:58.910Z,17.91
2017-06-03T00:43:03.860Z,17.83
2017-06-03T00:43:08.477Z,17.81
2017-06-03T00:43:13.114Z,17.83
2017-06-03T00:43:18.039Z,17.83
2017-06-03T00:43:23.203Z,17.89
2017-06-03T00:43:27.585Z,17.84
2017-06-03T00:43:32.593Z,17.84
2017-06-03T00:43:37.162Z,17.87
2017-06-03T00:43:42.932Z,17.83
2017-06-03T00:43:47.761Z,17.87
2017-06-03T00:43:52.810Z,17.91
2017-06-03T00:43:58.553Z,17.77
2017-06-03T00:44:02.986Z,17.84
2017-06-03T00:44:07.552Z,17.86
2017-06-03T00:44:13.189Z,17.81
2017-06-03T00:44:19.130Z,17.84
2017-06-03T00:44:23.964Z,17.86
2017-06-03T00:44:28.350Z,17.89
2017-06-03T00:44:34.001Z,17.91
2017-06-03T00:44:39.847Z,17.86
2017-06-03T00:44:44.986Z,17.89
2017-06-03T00:44:50.094Z,17.86
2017-06-03T00:44:54.648Z,17.91
2017-06-03T00:44:58.961Z,17.83
2017-06-03T00:45:04.383Z,17.8
2017-06-03T00:45:11.397Z,17.81
2017-06-03T00:45:15.871Z,17.84
2017-06-03T00:45:21.893Z,17.79
2017-06-03T00:45:27.882Z,17.83
2017-06-03T00:45:32.463Z,17.81
2017-06-03T00:45:38.234Z,17.77
2017-06-03T00:45:43.335Z,17.81
2017-06-03T00:45:48.906Z,17.84
2017-06-03T00:45:55.497Z,17.86
2017-06-03T00:46:00.380Z,17.83
2017-06-03T00:46:05.778Z,17.83
2017-06-03T00:46:11.421Z,17.81
2017-06-03T00:46:16.292Z,17.81
2017-06-03T00:46:21.575Z,17.89
2017-06-03T00:46:26.044Z,17.87
2017-06-03T00:46:33.861Z,17.84
2017-06-03T00:46:38.883Z,17.86
2017-06-03T00:46:43.761Z,17.81
2017-06-03T00:46:48.552Z,17.84
2017-06-03T00:46:53.917Z,17.8
2017-06-03T00:46:58.919Z,17.83
2017-06-03T00:47:03.873Z,17.8
2017-06-03T00:47:09.394Z,17.79
2017-06-03T00:47:14.339Z,17.8
2017-06-03T00:47:19.437Z,17.8
2017-06-03T00:47:24.116Z,17.86
2017-06-03T00:47:29.319Z,17.83
2017-06-03T00:47:35.355Z,17.84
2017-06-03T00:47:40.350Z,17.81
2017-06-03T00:47:45.088Z,17.84
2017-06-03T00:47:50.704Z,17.79
2017-06-03T00:47:55.942Z,17.79
2017-06-03T00:48:00.675Z,17.77
2017-06-03T00:48:06.624Z,17.86
2017-06-03T00:48:11.939Z,17.81
2017-06-03T00:48:16.676Z,17.83
2017-06-03T00:48:22.117Z,17.87
2017-06-03T00:48:26.869Z,17.81
2017-06-03T00:48:32.601Z,17.84
2017-06-03T00:48:37.622Z,17.84
2017-06-03T00:48:42.714Z,17.8
2017-06-03T00:48:47.505Z,17.74
2017-06-03T00:48:52.016Z,17.8
2017-06-03T00:48:56.461Z,17.83
2017-06-03T00:49:01.571Z,17.76
2017-06-03T00:49:06.533Z,17.8
2017-06-03T00:49:11.564Z,17.79
2017-06-03T00:49:16.945Z,17.83
2017-06-03T00:49:22.129Z,17.73
2017-06-03T00:49:27.502Z,17.8
2017-06-03T00:49:32.710Z,17.81
2017-06-03T00:49:37.668Z,17.74
2017-06-03T00:49:42.484Z,17.79
2017-06-03T00:49:47.845Z,17.81
2017-06-03T00:49:52.559Z,17.81
2017-06-03T00:49:58.110Z,17.74
2017-06-03T00:50:03.731Z,17.81
2017-06-03T00:50:08.496Z,17.77
2017-06-03T00:50:13.458Z,17.76
2017-06-03T00:50:17.762Z,17.8
2017-06-03T00:50:23.389Z,17.73
2017-06-03T00:50:28.562Z,17.79
2017-06-03T00:50:33.486Z,17.79
2017-06-03T00:50:39.255Z,17.74
2017-06-03T00:50:44.830Z,17.77
2017-06-03T00:50:50.852Z,17.74
2017-06-03T00:50:55.607Z,17.81
2017-06-03T00:51:00.003Z,17.79
2017-06-03T00:51:04.700Z,17.79
2017-06-03T00:51:09.848Z,17.79
2017-06-03T00:51:14.844Z,17.77
2017-06-03T00:51:19.998Z,17.77
2017-06-03T00:51:24.829Z,17.74
2017-06-03T00:51:30.081Z,17.87
2017-06-03T00:51:34.899Z,17.8
2017-06-03T00:51:40.252Z,17.73
2017-06-03T00:51:44.839Z,17.74
2017-06-03T00:51:49.443Z,17.77
2017-06-03T00:51:53.835Z,17.74
2017-06-03T00:51:58.672Z,17.77
2017-06-03T00:52:03.809Z,17.8
2017-06-03T00:52:09.050Z,17.77
2017-06-03T00:52:14.188Z,17.77
2017-06-03T00:52:20.017Z,17.84
2017-06-03T00:52:24.722Z,17.79
2017-06-03T00:52:29.890Z,17.77
2017-06-03T00:52:35.284Z,17.86
2017-06-03T00:52:40.251Z,17.8
2017-06-03T00:52:45.716Z,17.7
2017-06-03T00:52:51.405Z,17.74
2017-06-03T00:52:56.795Z,17.73
2017-06-03T00:53:02.343Z,17.76
2017-06-03T00:53:07.770Z,17.8
2017-06-03T00:53:12.540Z,17.8
2017-06-03T00:53:17.343Z,17.8
2017-06-03T00:53:21.974Z,17.7
2017-06-03T00:53:27.119Z,17.77
2017-06-03T00:53:32.120Z,17.79
2017-06-03T00:53:36.907Z,17.71
2017-06-03T00:53:41.322Z,17.77
2017-06-03T00:53:45.810Z,17.8
2017-06-03T00:53:50.970Z,17.71
2017-06-03T00:53:55.679Z,17.76
2017-06-03T00:54:01.648Z,17.76
2017-06-03T00:54:07.866Z,17.8
2017-06-03T00:54:13.113Z,17.79
2017-06-03T00:54:18.252Z,17.7
2017-06-03T00:54:22.750Z,17.8
2017-06-03T00:54:27.178Z,17.79
2017-06-03T00:54:31.488Z,17.74
2017-06-03T00:54:35.798Z,17.76
2017-06-03T00:54:39.994Z,17.74
2017-06-03T00:54:44.419Z,17.8
2017-06-03T00:54:50.360Z,17.81
2017-06-03T00:54:54.893Z,17.71
2017-06-03T00:55:00.459Z,17.73
2017-06-03T00:55:05.357Z,17.76
2017-06-03T00:55:10.755Z,17.73
2017-06-03T00:55:15.413Z,17.76
2017-06-03T00:55:20.645Z,17.74
2017-06-03T00:55:25.135Z,17.71
2017-06-03T00:55:30.026Z,17.71
2017-06-03T00:55:34.841Z,17.73
2017-06-03T00:55:41.792Z,17.73
2017-06-03T00:55:46.693Z,17.73
2017-06-03T00:55:52.068Z,17.73
2017-06-03T00:55:56.744Z,17.71
2017-06-03T00:56:01.546Z,17.7
2017-06-03T00:56:06.925Z,17.7
2017-06-03T00:56:11.492Z,17.7
2017-06-03T00:56:16.877Z,17.65
2017-06-03T00:56:21.599Z,17.73
2017-06-03T00:56:26.447Z,17.71
2017-06-03T00:56:31.586Z,17.74
2017-06-03T00:56:36.689Z,17.7
2017-06-03T00:56:41.449Z,17.73
2017-06-03T00:56:46.814Z,17.68
2017-06-03T00:56:51.425Z,17.68
2017-06-03T00:56:56.357Z,17.7
2017-06-03T00:57:01.604Z,17.68
2017-06-03T00:57:06.500Z,17.71
2017-06-03T00:57:11.738Z,17.73
2017-06-03T00:57:16.253Z,17.74
2017-06-03T00:57:21.085Z,17.66
2017-06-03T00:57:26.014Z,17.73
2017-06-03T00:57:31.245Z,17.68
2017-06-03T00:57:36.177Z,17.62
2017-06-03T00:57:40.609Z,17.7
2017-06-03T00:57:45.173Z,17.7
2017-06-03T00:57:49.940Z,17.68
2017-06-03T00:57:54.758Z,17.7
2017-06-03T00:58:00.304Z,17.76
2017-06-03T00:58:04.998Z,17.76
2017-06-03T00:58:10.370Z,17.74
2017-06-03T00:58:16.601Z,17.66
2017-06-03T00:58:21.957Z,17.79
2017-06-03T00:58:26.645Z,17.68
2017-06-03T00:58:31.414Z,17.68
2017-06-03T00:58:36.225Z,17.68
2017-06-03T00:58:40.895Z,17.65
2017-06-03T00:58:45.203Z,17.68
2017-06-03T00:58:49.508Z,17.65
2017-06-03T00:58:53.935Z,17.68
2017-06-03T00:58:58.865Z,17.66
2017-06-03T00:59:05.113Z,17.8
2017-06-03T00:59:11.300Z,17.71
2017-06-03T00:59:17.891Z,17.63
2017-06-03T00:59:23.448Z,17.63
2017-06-03T00:59:28.274Z,17.65
2017-06-03T00:59:33.356Z,17.63
2017-06-03T00:59:38.479Z,17.79
2017-06-03T00:59:43.814Z,17.68
2017-06-03T00:59:48.793Z,17.71
2017-06-03T00:59:53.751Z,17.73
2017-06-03T00:59:58.539Z,17.63
2017-06-03T01:00:03.647Z,17.77
2017-06-03T01:00:08.262Z,17.7
2017-06-03T01:00:13.280Z,17.77
2017-06-03T01:00:18.010Z,17.76
2017-06-03T01:00:23.813Z,17.8
2017-06-03T01:00:28.723Z,17.65
2017-06-03T01:00:34.099Z,17.63
2017-06-03T01:00:39.594Z,17.71
2017-06-03T01:00:46.378Z,17.6
2017-06-03T01:00:51.511Z,17.7
2017-06-03T01:00:57.759Z,17.7
2017-06-03T01:01:06.539Z,17.65
2017-06-03T01:01:12.394Z,17.73
2017-06-03T01:01:16.975Z,17.7
2017-06-03T01:01:24.160Z,17.65
2017-06-03T01:01:30.260Z,17.58
2017-06-03T01:01:37.254Z,17.62
2017-06-03T01:01:44.235Z,17.63
2017-06-03T01:01:49.527Z,17.79
2017-06-03T01:01:56.587Z,17.68
2017-06-03T01:02:01.741Z,17.63
2017-06-03T01:02:06.516Z,17.71
2017-06-03T01:02:12.677Z,17.63
2017-06-03T01:02:17.832Z,17.63
2017-06-03T01:02:22.969Z,17.66
2017-06-03T01:02:28.765Z,17.77
2017-06-03T01:02:33.135Z,17.57
2017-06-03T01:02:38.338Z,17.7
2017-06-03T01:02:43.380Z,17.73
2017-06-03T01:02:48.395Z,17.62
2017-06-03T01:02:53.568Z,17.79
2017-06-03T01:02:58.243Z,17.68
2017-06-03T01:03:02.929Z,17.62
2017-06-03T01:03:08.908Z,17.71
2017-06-03T01:03:13.600Z,17.73
2017-06-03T01:03:18.990Z,17.68
2017-06-03T01:03:24.018Z,17.77
2017-06-03T01:03:29.321Z,17.68
2017-06-03T01:03:34.071Z,17.62
2017-06-03T01:03:38.655Z,17.63
2017-06-03T01:03:43.691Z,17.68
2017-06-03T01:03:48.515Z,17.63